Aérodrome :
LOGIN :

S'inscrire | Disclaimer

   EN    FR    IT 

 










Légende :    VFR   VFR Marginal   IFR   IFR Intensif   IFR Très Intensif
Visi : 
Plafond : 
>= 8 km
>= 3000ft
5 à 8 km
1000 à 3000 ft
1500m à 5 km
500 à 1000 ft
800 à 1500m
200 à 500 ft
< 800m
< 200 ft
Symboles :   Orages  Brouillard  Fortes neiges  Fortes précipitations  Vent > 20 kt
SIGMETs :   Divers  Orages  Givrage  Turbulence  Onde Orograph.  Cendres Volcan.







- Altitude de l'aérodrome : 675 ft
- Code IATA : RZE


EPRZ - Rzeszow-Jasionka

DERNIER METAR :
  • 241130Z 16015KT 9999 SCT045 18/06 Q1020

METARs EXPIRÉS :
  • 241100Z 16014KT 9999 SCT044 17/06 Q1020
  • 241030Z 15013KT 130V200 9999 BKN043 17/06 Q1020
  • 241000Z 17014KT 130V190 9999 BKN043 16/05 Q1020
  • 240930Z 17015KT 9999 BKN040 16/05 Q1020
  • 240900Z 17016KT 130V210 9999 SCT043 16/05 Q1020

TAF TAF EPRZ
Valide du 24 à 12h jusqu'au 25 à 12h UTC


241130Z 2412/2512 15015KT CAVOK
TEMPO 2412/2417 16018G28KT SCT040CB
TEMPO 2508/2512 18020G30KT
Pas de NOTAMs connus pour ce terrain.



MET'MAP, la Météo Aéronautique d'un coup d'oeil ! - Copyright ORBIFLY Décembre 2007 - Disclaimer

ORBIFLY MET'MAP TEAM :

Programmation & Développement : Alexandra Zaïnal
Conception & Développement : Baudouin d'Aumeries
Co-Programmation & Développement : Marc-Olivier Méhu
Soutien technique & logistique : Manuel Goepfert

Contact : metmap@orbifly.com




SOURCES & CREDITS :

   NOAA